Time;durP1;ratioP1;P1;durP2;ratioP2;P2;SDS_P1;SDS_P2;PMS_P1;PMS_P2;Temp;Humidity;BMP_temperature;BMP_pressure;BME280_temperature;BME280_humidity;BME280_pressure;Samples;Min_cycle;Max_cycle;Signal;HPM_P1;HPM_P2
2023/01/05 00:01:35;;;;;;;5.68;1.85;;;;;;;;;;5029764;28;20053;-77
2023/01/05 00:04:02;;;;;;;4.65;1.90;;;;;;;;;;5029539;28;20145;-77
2023/01/05 00:06:29;;;;;;;4.00;1.50;;;;;;;;;;5030412;28;20132;-77
2023/01/05 00:08:57;;;;;;;7.90;1.83;;;;;;;;;;5030041;28;20120;-77
2023/01/05 00:22:30;;;;;;;3.38;1.48;;;;;;;;;;5014147;28;20045;-77
2023/01/05 00:24:57;;;;;;;6.53;2.17;;;;;;;;;;5020973;28;20128;-76
2023/01/05 00:27:24;;;;;;;5.35;2.60;;;;;;;;;;5033645;28;20057;-76
2023/01/05 00:29:51;;;;;;;4.25;1.55;;;;;;;;;;5033258;28;20056;-77
2023/01/05 00:32:19;;;;;;;4.55;1.90;;;;;;;;;;5033254;28;20055;-77
2023/01/05 00:34:46;;;;;;;4.57;1.65;;;;;;;;;;5033041;28;20060;-76
2023/01/05 00:37:13;;;;;;;4.38;1.70;;;;;;;;;;5032857;28;20108;-77
2023/01/05 00:39:41;;;;;;;4.30;1.40;;;;;;;;;;5033185;28;20085;-77
2023/01/05 00:42:08;;;;;;;4.72;1.67;;;;;;;;;;5032962;28;20053;-77
2023/01/05 00:44:35;;;;;;;4.38;1.70;;;;;;;;;;5032581;28;20053;-78
2023/01/05 00:47:02;;;;;;;4.82;1.92;;;;;;;;;;5033224;28;20087;-77
2023/01/05 00:49:30;;;;;;;5.00;1.60;;;;;;;;;;5032841;28;20059;-77
2023/01/05 00:51:57;;;;;;;4.30;1.70;;;;;;;;;;5033124;28;20140;-76
2023/01/05 00:54:24;;;;;;;6.05;1.75;;;;;;;;;;5030035;28;20072;-76
2023/01/05 00:56:51;;;;;;;3.65;1.60;;;;;;;;;;5029970;28;20049;-77
2023/01/05 00:59:18;;;;;;;2.42;1.27;;;;;;;;;;5032899;28;20065;-77
2023/01/05 01:01:46;;;;;;;4.55;1.58;;;;;;;;;;5033161;28;20173;-77
2023/01/05 01:04:13;;;;;;;4.45;1.70;;;;;;;;;;5031789;28;20517;-76
2023/01/05 01:06:41;;;;;;;4.82;1.58;;;;;;;;;;5034094;28;20068;-76
2023/01/05 01:09:08;;;;;;;3.28;1.38;;;;;;;;;;5032562;28;20059;-77
2023/01/05 01:11:35;;;;;;;4.78;1.55;;;;;;;;;;5032790;28;20480;-77
2023/01/05 01:14:03;;;;;;;4.57;1.60;;;;;;;;;;5032496;28;20063;-77
2023/01/05 01:16:30;;;;;;;5.13;1.65;;;;;;;;;;5014466;28;20096;-77
2023/01/05 01:18:57;;;;;;;3.50;1.60;;;;;;;;;;5012865;28;20056;-77
2023/01/05 01:21:24;;;;;;;2.92;1.60;;;;;;;;;;5012847;28;20056;-76
2023/01/05 01:23:52;;;;;;;3.63;1.33;;;;;;;;;;5012522;28;20483;-77
2023/01/05 01:26:19;;;;;;;2.80;1.35;;;;;;;;;;5029886;28;20060;-76
2023/01/05 01:28:47;;;;;;;4.70;1.60;;;;;;;;;;5032115;28;20049;-76
2023/01/05 01:31:14;;;;;;;4.60;1.50;;;;;;;;;;5033436;28;20425;-76
2023/01/05 01:33:41;;;;;;;4.63;1.55;;;;;;;;;;5032340;28;20046;-77
2023/01/05 01:36:08;;;;;;;4.35;1.42;;;;;;;;;;5031105;28;20053;-77
2023/01/05 01:38:35;;;;;;;3.20;1.35;;;;;;;;;;5032088;28;20640;-79
2023/01/05 01:41:04;;;;;;;2.92;1.63;;;;;;;;;;5032440;28;20058;-76
2023/01/05 01:43:42;;;;;;;2.83;1.40;;;14.40;74.60;;;;;;5033154;28;20132;-76
2023/01/05 01:46:09;;;;;;;4.75;1.67;;;;;;;;;;5031761;28;20063;-77
2023/01/05 01:48:37;;;;;;;2.35;1.27;;;;;;;;;;5032167;28;20443;-77
2023/01/05 01:51:05;;;;;;;3.63;1.60;;;14.30;75.70;;;;;;5031630;28;20072;-80
2023/01/05 01:53:34;;;;;;;3.35;1.38;;;;;;;;;;5032011;28;20465;-77
2023/01/05 01:56:02;;;;;;;3.10;1.60;;;;;;;;;;5017617;28;20092;-77
2023/01/05 01:58:31;;;;;;;2.83;1.40;;;;;;;;;;5011983;28;20070;-77
2023/01/05 02:00:59;;;;;;;3.10;1.40;;;;;;;;;;5012215;28;20129;-77
2023/01/05 02:03:26;;;;;;;4.35;1.60;;;;;;;;;;5011973;28;20065;-77
2023/01/05 02:05:54;;;;;;;3.08;1.45;;;;;;;;;;5025706;28;20049;-77
2023/01/05 02:08:24;;;;;;;3.83;1.60;;;;;;;;;;5031597;28;20058;-77
2023/01/05 02:11:12;;;;;;;5.00;1.42;;;14.20;75.70;;;;;;5031697;28;20049;-77
2023/01/05 02:13:47;;;;;;;2.47;1.20;;;14.20;75.80;;;;;;5028023;28;20157;-77
2023/01/05 02:16:19;;;;;;;4.43;1.50;;;14.30;74.30;;;;;;5016172;28;20133;-80
2023/01/05 02:18:54;;;;;;;4.82;1.60;;;;;;;;;;5011770;28;20132;-77
2023/01/05 02:21:22;;;;;;;3.70;1.58;;;;;;;;;;5011841;28;20506;-77
2023/01/05 02:23:55;;;;;;;4.47;1.50;;;;;;;;;;5012656;28;20411;-77
2023/01/05 02:26:29;;;;;;;3.88;1.50;;;;;;;;;;5027535;28;20130;-77
2023/01/05 02:29:20;;;;;;;4.10;1.47;;;14.30;75.90;;;;;;5031531;28;20475;-77
2023/01/05 02:31:49;;;;;;;3.35;1.30;;;;;;;;;;5032274;28;20079;-80
2023/01/05 02:34:19;;;;;;;1.98;1.10;;;14.20;75.80;;;;;;5031291;28;20064;-77
2023/01/05 02:36:49;;;;;;;4.32;1.52;;;;;;;;;;5018889;28;20455;-77
2023/01/05 02:39:16;;;;;;;1.95;1.20;;;;;;;;;;5031289;28;20088;-77
2023/01/05 02:41:45;;;;;;;3.45;1.48;;;;;;;;;;5032217;28;20140;-79
2023/01/05 02:44:12;;;;;;;3.80;1.30;;;;;;;;;;5030324;28;20394;-77
2023/01/05 02:46:39;;;;;;;3.17;1.33;;;;;;;;;;5012182;28;20054;-77
2023/01/05 02:49:07;;;;;;;5.97;2.00;;;;;;;;;;5022315;28;20053;-77
2023/01/05 02:51:36;;;;;;;2.58;1.30;;;14.20;75.80;;;;;;5030646;28;20068;-77
2023/01/05 02:54:04;;;;;;;4.95;1.50;;;;;;;;;;5030755;28;20059;-77
2023/01/05 02:56:32;;;;;;;2.78;1.20;;;;;;;;;;5013582;28;20058;-76
2023/01/05 02:59:01;;;;;;;4.15;1.50;;;14.10;75.30;;;;;;5011006;28;20049;-77
2023/01/05 03:01:29;;;;;;;3.53;1.60;;;14.20;74.10;;;;;;5011256;28;20050;-77
2023/01/05 03:03:57;;;;;;;5.05;1.80;;;;;;;;;;5011004;28;20479;-77
2023/01/05 03:06:27;;;;;;;4.00;1.55;;;14.20;74.10;;;;;;5011131;28;20174;-77
2023/01/05 03:08:54;;;;;;;4.05;1.30;;;;;;;;;;5028637;28;20128;-77
2023/01/05 03:14:08;;;;;;;4.63;1.60;;;;;;;;;;5031724;28;20037;-76
2023/01/05 03:16:36;;;;;;;3.80;1.50;;;;;;;;;;5014180;28;20092;-77
2023/01/05 03:35:36;;;;;;;3.97;1.40;;;;;;;;;;5030721;28;20057;-79
2023/01/05 03:38:07;;;;;;;5.72;1.67;;;;;;;;;;5031184;28;20407;-77
2023/01/05 03:40:35;;;;;;;3.08;1.50;;;;;;;;;;5030257;28;20056;-77
2023/01/05 03:43:02;;;;;;;3.60;1.30;;;;;;;;;;5030480;28;20057;-77
2023/01/05 03:45:32;;;;;;;4.68;1.50;;;;;;;;;;5030014;28;20080;-79
2023/01/05 03:48:00;;;;;;;2.42;1.20;;;;;;;;;;5030389;28;20140;-77
2023/01/05 03:50:27;;;;;;;3.05;1.38;;;;;;;;;;5030119;28;20522;-77
2023/01/05 03:52:54;;;;;;;4.07;1.45;;;;;;;;;;5030394;28;20107;-77
2023/01/05 03:55:23;;;;;;;4.40;1.30;;;;;;;;;;5030115;28;20084;-79
2023/01/05 03:57:50;;;;;;;3.75;1.58;;;;;;;;;;5035300;28;20410;-77
2023/01/05 04:00:17;;;;;;;3.33;1.50;;;;;;;;;;5034234;28;20447;-77
2023/01/05 04:02:44;;;;;;;5.05;1.50;;;;;;;;;;5033864;28;20053;-77
2023/01/05 04:05:11;;;;;;;5.38;1.60;;;;;;;;;;5029541;28;20550;-77
2023/01/05 04:07:38;;;;;;;3.53;1.70;;;;;;;;;;5015209;28;20503;-77
2023/01/05 04:10:06;;;;;;;4.85;1.67;;;;;;;;;;5014198;28;20503;-77
2023/01/05 04:12:35;;;;;;;4.00;1.52;;;;;;;;;;5013685;28;20058;-77
2023/01/05 04:15:02;;;;;;;3.92;1.60;;;;;;;;;;5017927;28;21894;-78
2023/01/05 04:17:29;;;;;;;4.43;1.42;;;;;;;;;;5034007;28;20053;-77
2023/01/05 04:19:56;;;;;;;2.80;1.48;;;;;;;;;;5033659;28;20053;-77
2023/01/05 04:22:23;;;;;;;4.28;1.50;;;;;;;;;;5033651;28;20061;-77
2023/01/05 04:24:50;;;;;;;3.35;1.70;;;;;;;;;;5033324;28;20061;-78
2023/01/05 04:27:17;;;;;;;3.70;1.50;;;;;;;;;;5034848;28;20128;-77
2023/01/05 04:29:46;;;;;;;6.57;1.90;;;;;;;;;;5033369;28;20057;-78
2023/01/05 04:32:13;;;;;;;3.22;1.27;;;;;;;;;;5033541;28;20053;-77
2023/01/05 04:34:40;;;;;;;2.65;1.30;;;;;;;;;;5033504;28;20056;-77
2023/01/05 04:37:07;;;;;;;3.50;1.42;;;;;;;;;;5032466;28;20090;-77
2023/01/05 04:39:34;;;;;;;4.85;1.50;;;;;;;;;;5033523;28;20059;-77
2023/01/05 04:42:01;;;;;;;7.25;1.95;;;;;;;;;;5033259;28;20083;-78
2023/01/05 04:44:28;;;;;;;4.18;1.40;;;;;;;;;;5034429;28;20136;-77
2023/01/05 04:46:56;;;;;;;3.17;1.38;;;;;;;;;;5033674;28;20049;-77
2023/01/05 04:49:24;;;;;;;2.75;1.48;;;;;;;;;;5033336;28;20063;-77
2023/01/05 04:51:51;;;;;;;4.03;1.40;;;;;;;;;;5033053;28;20049;-77
2023/01/05 04:54:18;;;;;;;3.92;1.35;;;;;;;;;;5033042;28;20053;-77
2023/01/05 04:56:45;;;;;;;3.90;1.55;;;;;;;;;;5017237;28;20050;-77
2023/01/05 04:59:12;;;;;;;3.72;1.58;;;;;;;;;;5013233;28;20060;-77
2023/01/05 05:01:39;;;;;;;3.67;1.60;;;;;;;;;;5013400;28;20072;-77
2023/01/05 05:04:07;;;;;;;4.43;1.55;;;;;;;;;;5014042;28;20042;-77
2023/01/05 05:06:34;;;;;;;4.18;1.35;;;;;;;;;;5013739;28;20136;-77
2023/01/05 05:09:01;;;;;;;3.63;1.65;;;;;;;;;;5012211;28;20050;-79
2023/01/05 05:11:28;;;;;;;5.57;1.48;;;;;;;;;;5014214;28;20045;-77
2023/01/05 05:13:56;;;;;;;3.17;1.42;;;;;;;;;;5012983;28;20063;-80
2023/01/05 05:16:23;;;;;;;2.90;1.30;;;;;;;;;;5013246;28;20057;-77
2023/01/05 05:18:50;;;;;;;2.88;1.40;;;;;;;;;;5012999;28;20136;-80
2023/01/05 05:21:18;;;;;;;4.35;1.63;;;;;;;;;;5012953;28;20057;-77
2023/01/05 05:23:45;;;;;;;3.92;1.40;;;;;;;;;;5012846;28;20057;-77
2023/01/05 05:26:12;;;;;;;3.95;1.48;;;;;;;;;;5012933;28;20570;-77
2023/01/05 05:28:39;;;;;;;3.78;1.40;;;;;;;;;;5012405;28;20053;-77
2023/01/05 05:31:06;;;;;;;2.45;1.40;;;;;;;;;;5012574;28;20168;-79
2023/01/05 05:33:33;;;;;;;4.13;1.65;;;;;;;;;;5012855;28;20064;-76
2023/01/05 05:36:00;;;;;;;3.40;1.40;;;;;;;;;;5023866;28;20141;-78
2023/01/05 05:38:29;;;;;;;5.55;1.40;;;;;;;;;;5032100;28;20045;-77
2023/01/05 05:40:56;;;;;;;3.63;1.27;;;;;;;;;;5032197;28;20050;-76
2023/01/05 05:43:23;;;;;;;3.95;1.13;;;;;;;;;;5031911;28;20057;-76
2023/01/05 05:45:50;;;;;;;2.58;1.27;;;;;;;;;;5031650;28;20063;-77
2023/01/05 05:48:17;;;;;;;4.40;1.30;;;;;;;;;;5032200;28;20057;-77
2023/01/05 05:50:44;;;;;;;4.30;1.48;;;;;;;;;;5033087;28;20053;-76
2023/01/05 05:53:11;;;;;;;2.53;1.42;;;;;;;;;;5032061;28;20057;-77
2023/01/05 05:55:40;;;;;;;3.17;1.45;;;;;;;;;;5031693;28;20096;-77
2023/01/05 05:58:07;;;;;;;3.58;1.40;;;;;;;;;;5031957;28;20454;-80
2023/01/05 06:00:35;;;;;;;3.05;1.40;;;;;;;;;;5032021;28;20050;-77
2023/01/05 06:03:02;;;;;;;3.38;1.50;;;;;;;;;;5031611;28;20055;-77
2023/01/05 06:05:29;;;;;;;4.95;1.73;;;;;;;;;;5027413;28;20124;-77
2023/01/05 06:07:56;;;;;;;4.50;1.40;;;;;;;;;;5011745;28;20122;-77
2023/01/05 06:10:23;;;;;;;3.53;1.50;;;;;;;;;;5011884;28;20058;-77
2023/01/05 06:12:51;;;;;;;3.45;1.40;;;;;;;;;;5011763;28;20143;-77
2023/01/05 06:15:18;;;;;;;2.60;1.30;;;;;;;;;;5012287;28;20481;-77
2023/01/05 06:17:47;;;;;;;3.10;1.30;;;;;;;;;;5012002;28;20430;-80
2023/01/05 06:20:15;;;;;;;3.78;1.27;;;;;;;;;;5012833;28;20076;-77
2023/01/05 06:22:42;;;;;;;3.45;1.45;;;;;;;;;;5012660;28;20454;-77
2023/01/05 06:25:10;;;;;;;3.63;1.50;;;;;;;;;;5012757;28;20056;-76
2023/01/05 06:27:37;;;;;;;3.55;1.40;;;;;;;;;;5031347;28;20140;-77
2023/01/05 06:30:06;;;;;;;2.90;1.30;;;;;;;;;;5031193;28;20052;-78
2023/01/05 06:32:33;;;;;;;4.30;1.70;;;;;;;;;;5030911;28;20125;-77
2023/01/05 06:35:00;;;;;;;4.00;1.60;;;;;;;;;;5031263;28;20055;-79
2023/01/05 06:37:27;;;;;;;3.15;1.40;;;;;;;;;;5030612;28;20064;-77
2023/01/05 06:39:55;;;;;;;2.28;1.27;;;;;;;;;;5031322;28;20059;-79
2023/01/05 06:42:22;;;;;;;4.35;1.50;;;;;;;;;;5030985;28;20053;-77
2023/01/05 06:44:49;;;;;;;2.38;1.35;;;;;;;;;;5031018;28;20413;-76
2023/01/05 06:47:17;;;;;;;2.60;1.42;;;;;;;;;;5031152;28;20559;-77
2023/01/05 06:49:44;;;;;;;3.88;1.50;;;;;;;;;;5031143;28;20053;-78
2023/01/05 06:52:11;;;;;;;2.97;1.30;;;;;;;;;;5030756;28;20071;-77
2023/01/05 06:54:38;;;;;;;3.08;1.40;;;;;;;;;;5030964;28;20136;-79
2023/01/05 06:57:06;;;;;;;4.03;1.55;;;;;;;;;;5021766;28;20137;-77
2023/01/05 06:59:34;;;;;;;2.80;1.55;;;;;;;;;;5011141;28;20062;-76
2023/01/05 07:02:01;;;;;;;5.03;1.35;;;;;;;;;;5011258;28;20384;-78
2023/01/05 07:04:29;;;;;;;3.42;1.35;;;;;;;;;;5010903;28;20418;-77
2023/01/05 07:06:56;;;;;;;2.72;1.35;;;;;;;;;;5025411;28;20410;-77
2023/01/05 07:09:23;;;;;;;3.83;1.40;;;;;;;;;;5030958;28;20400;-77
2023/01/05 07:11:50;;;;;;;3.28;1.52;;;;;;;;;;5030552;28;20483;-77
2023/01/05 07:14:17;;;;;;;4.97;1.58;;;;;;;;;;5030747;28;20057;-78
2023/01/05 07:16:44;;;;;;;3.30;1.50;;;;;;;;;;5026781;28;20145;-77
2023/01/05 07:19:11;;;;;;;2.95;1.35;;;;;;;;;;5030666;28;20056;-77
2023/01/05 07:21:40;;;;;;;3.03;1.45;;;;;;;;;;5030396;28;20471;-77
2023/01/05 07:24:07;;;;;;;2.70;1.40;;;;;;;;;;5030658;28;20139;-76
2023/01/05 07:26:34;;;;;;;3.42;1.30;;;;;;;;;;5030107;28;20140;-77
2023/01/05 07:29:01;;;;;;;3.05;1.30;;;;;;;;;;5026866;28;20045;-79
2023/01/05 07:31:28;;;;;;;3.08;1.50;;;;;;;;;;5032436;28;20128;-77
2023/01/05 07:33:55;;;;;;;3.85;1.63;;;;;;;;;;5032368;28;20576;-79
2023/01/05 07:36:23;;;;;;;5.13;1.70;;;;;;;;;;5033230;28;20573;-76
2023/01/05 07:38:51;;;;;;;3.85;1.40;;;;;;;;;;5034402;28;20482;-79
2023/01/05 07:41:18;;;;;;;3.58;1.50;;;;;;;;;;5035645;28;20413;-77
2023/01/05 07:43:45;;;;;;;2.40;1.20;;;;;;;;;;5034212;28;20080;-77
2023/01/05 07:46:12;;;;;;;5.82;1.60;;;;;;;;;;5026144;28;20093;-77
2023/01/05 07:48:40;;;;;;;7.40;1.50;;;;;;;;;;5014486;28;20062;-76
2023/01/05 07:51:07;;;;;;;3.50;1.52;;;;;;;;;;5014496;28;20061;-77
2023/01/05 07:53:36;;;;;;;6.30;1.63;;;;;;;;;;5014532;28;20082;-79
2023/01/05 07:56:05;;;;;;;3.88;1.45;;;;;;;;;;5021299;28;20081;-76
2023/01/05 07:58:32;;;;;;;3.05;1.50;;;;;;;;;;5034296;28;20053;-76
2023/01/05 08:01:02;;;;;;;3.28;1.50;;;;;;;;;;5035069;28;20081;-76
2023/01/05 08:03:29;;;;;;;5.63;1.77;;;;;;;;;;5034244;28;20450;-77
2023/01/05 08:05:57;;;;;;;4.38;1.70;;;;;;;;;;5035049;28;20463;-78
2023/01/05 08:08:24;;;;;;;3.60;1.50;;;;;;;;;;5035277;28;20414;-76
2023/01/05 08:10:51;;;;;;;4.05;1.48;;;;;;;;;;5031488;28;20129;-79
2023/01/05 08:16:04;;;;;;;3.58;1.60;;;;;;;;;;5015675;28;20045;-76
2023/01/05 08:18:31;;;;;;;3.97;1.60;;;;;;;;;;5015138;28;20073;-78
2023/01/05 08:20:59;;;;;;;4.53;1.70;;;;;;;;;;5023212;28;20101;-76
2023/01/05 08:23:26;;;;;;;6.57;1.85;;;;;;;;;;5025979;28;20058;-76
2023/01/05 08:25:54;;;;;;;2.80;1.60;;;;;;;;;;5021391;28;20064;-76
2023/01/05 08:28:22;;;;;;;4.47;1.55;;;;;;;;;;5034462;28;20128;-76
2023/01/05 08:30:49;;;;;;;6.30;1.70;;;;;;;;;;5023848;28;20093;-79
2023/01/05 08:33:16;;;;;;;3.47;1.50;;;;;;;;;;5013373;28;20050;-76
2023/01/05 08:35:44;;;;;;;3.55;1.80;;;;;;;;;;5013946;28;20077;-77
2023/01/05 08:38:11;;;;;;;5.50;1.70;;;;;;;;;;5029210;28;20058;-77
2023/01/05 08:40:38;;;;;;;6.47;1.65;;;;;;;;;;5013592;28;20418;-76
2023/01/05 08:43:05;;;;;;;2.65;1.30;;;;;;;;;;5013487;28;20056;-76
2023/01/05 08:45:33;;;;;;;3.83;1.73;;;;;;;;;;5013615;28;20144;-75
2023/01/05 08:48:01;;;;;;;3.58;1.48;;;;;;;;;;5026320;28;20191;-75
2023/01/05 08:50:30;;;;;;;3.85;1.52;;;;;;;;;;5034094;28;20053;-76
2023/01/05 08:52:57;;;;;;;3.60;1.48;;;;;;;;;;5033460;28;20041;-76
2023/01/05 08:55:24;;;;;;;3.88;1.40;;;;;;;;;;5027000;28;20128;-76
2023/01/05 08:57:51;;;;;;;3.30;1.52;;;;;;;;;;5023593;28;20076;-75
2023/01/05 09:00:20;;;;;;;4.53;1.60;;;;;;;;;;5025153;28;20152;-76
2023/01/05 09:02:49;;;;;;;3.55;1.65;;;;;;;;;;5022867;28;20054;-75
2023/01/05 09:05:16;;;;;;;2.60;1.20;;;;;;;;;;5022576;28;20049;-75
2023/01/05 09:07:43;;;;;;;5.40;1.45;;;;;;;;;;5023319;28;20057;-76
2023/01/05 09:10:10;;;;;;;3.53;1.42;;;;;;;;;;5024528;28;20049;-77
2023/01/05 09:12:38;;;;;;;3.65;1.45;;;;;;;;;;5020157;28;20047;-76
2023/01/05 09:15:05;;;;;;;3.10;1.60;;;;;;;;;;5020519;28;20049;-76
2023/01/05 09:17:34;;;;;;;4.10;1.60;;;;;;;;;;5021031;28;20049;-75
2023/01/05 09:20:03;;;;;;;4.30;1.50;;;;;;;;;;5021901;28;20088;-76
2023/01/05 09:22:31;;;;;;;3.15;1.30;;;;;;;;;;5017978;28;20052;-76
2023/01/05 09:24:58;;;;;;;4.05;1.52;;;;;;;;;;5022374;28;20050;-77
2023/01/05 09:27:25;;;;;;;4.03;1.30;;;;;;;;;;5025220;28;20044;-78
2023/01/05 09:29:52;;;;;;;3.53;1.60;;;;;;;;;;5018641;28;20057;-75
2023/01/05 09:32:19;;;;;;;3.35;1.63;;;;;;;;;;5023811;28;20050;-76
2023/01/05 09:34:46;;;;;;;3.55;1.50;;;;;;;;;;5016911;28;20085;-76
2023/01/05 09:37:14;;;;;;;3.38;1.40;;;;;;;;;;5018000;28;20053;-76
2023/01/05 09:39:42;;;;;;;4.28;1.33;;;;;;;;;;5022037;28;20054;-76
2023/01/05 09:42:10;;;;;;;3.70;1.48;;;;;;;;;;5025586;28;20045;-75
2023/01/05 09:44:38;;;;;;;6.03;1.63;;;;;;;;;;5018691;28;20125;-78
2023/01/05 09:47:05;;;;;;;2.72;1.30;;;;;;;;;;5022532;28;20053;-76
2023/01/05 09:49:33;;;;;;;3.92;1.27;;;;;;;;;;5016654;28;20128;-75
2023/01/05 09:52:01;;;;;;;3.38;1.15;;;;;;;;;;5021377;28;20049;-75
2023/01/05 09:54:30;;;;;;;2.50;1.25;;;;;;;;;;5020182;28;20084;-75
2023/01/05 09:56:57;;;;;;;2.08;1.20;;;;;;;;;;5019623;28;20056;-75
2023/01/05 09:59:25;;;;;;;4.18;1.40;;;;;;;;;;5014145;28;20146;-75
2023/01/05 10:01:52;;;;;;;4.57;1.55;;;;;;;;;;5010698;28;20141;-78
2023/01/05 10:04:19;;;;;;;2.88;1.70;;;;;;;;;;5013076;28;20411;-75
2023/01/05 10:06:47;;;;;;;4.20;1.60;;;15.40;74.40;;;;;;5024953;28;20136;-76
2023/01/05 10:09:16;;;;;;;4.68;1.50;;;;;;;;;;5019069;28;20107;-76
2023/01/05 10:14:32;;;;;;;5.72;1.40;;;;;;;;;;5022406;28;20049;-75
2023/01/05 10:17:00;;;;;;;2.08;1.17;;;;;;;;;;5024533;28;20049;-75
2023/01/05 10:19:27;;;;;;;4.30;1.20;;;;;;;;;;5020687;28;20053;-75
2023/01/05 10:21:59;;;;;;;4.50;1.48;;;15.50;74.20;;;;;;5023101;28;20124;-75
2023/01/05 10:24:28;;;;;;;5.93;1.50;;;;;;;;;;5022595;28;20471;-75
2023/01/05 10:26:57;;;;;;;3.85;1.20;;;;;;;;;;5022338;28;20053;-75
2023/01/05 10:29:24;;;;;;;4.32;1.40;;;;;;;;;;5024614;28;20148;-75
2023/01/05 10:31:54;;;;;;;3.90;1.48;;;15.40;74.20;;;;;;5021804;28;20808;-75
2023/01/05 10:34:22;;;;;;;3.97;1.30;;;;;;;;;;5022870;28;20144;-75
2023/01/05 10:37:05;;;;;;;5.35;1.50;;;15.40;74.40;;;;;;5021722;28;20061;-75
2023/01/05 10:39:37;;;;;;;1.90;1.02;;;;;;;;;;5022123;28;20037;-75
2023/01/05 10:42:07;;;;;;;3.63;1.50;;;15.30;74.50;;;;;;5018824;28;20049;-77
2023/01/05 10:44:42;;;;;;;4.70;1.38;;;;;;;;;;5016309;28;20132;-76
2023/01/05 10:47:10;;;;;;;3.47;1.23;;;;;;;;;;5021375;28;20056;-75
2023/01/05 10:49:37;;;;;;;3.58;1.40;;;;;;;;;;5019483;28;20140;-75
2023/01/05 10:52:04;;;;;;;3.95;1.33;;;;;;;;;;5022673;28;20137;-76
2023/01/05 10:54:37;;;;;;;3.17;1.40;;;15.20;74.80;;;;;;5021640;28;20053;-76
2023/01/05 10:57:34;;;;;;;2.90;1.20;;;15.20;71.00;;;;;;5024477;28;20104;-75
2023/01/05 11:00:01;;;;;;;3.38;1.50;;;;;;;;;;5042092;28;20435;-76
2023/01/05 11:02:29;;;;;;;3.85;1.30;;;;;;;;;;5024525;28;20054;-75
2023/01/05 11:04:56;;;;;;;4.28;1.42;;;;;;;;;;5024039;28;20133;-76
2023/01/05 11:07:23;;;;;;;3.85;1.10;;;;;;;;;;5021599;28;20064;-75
2023/01/05 11:09:50;;;;;;;6.70;1.52;;;;;;;;;;5016224;28;20060;-77
2023/01/05 11:12:18;;;;;;;2.80;1.20;;;;;;;;;;5015111;28;20506;-75
2023/01/05 11:14:48;;;;;;;3.05;1.23;;;;;;;;;;5028774;28;20077;-76
2023/01/05 11:17:16;;;;;;;3.63;1.60;;;15.10;74.40;;;;;;5022989;28;20054;-76
2023/01/05 11:19:44;;;;;;;3.15;1.40;;;;;;;;;;5021860;28;20061;-76
2023/01/05 11:22:26;;;;;;;2.88;1.27;;;;;;;;;;5017831;28;20060;-76
2023/01/05 11:24:53;;;;;;;3.00;1.40;;;;;;;;;;5017204;28;20132;-76
2023/01/05 11:27:24;;;;;;;3.13;1.48;;;;;;;;;;5020492;28;20042;-76
2023/01/05 11:30:17;;;;;;;1.85;1.20;;;15.10;75.00;;;;;;5018723;28;20050;-75
2023/01/05 11:32:45;;;;;;;2.60;1.50;;;;;;;;;;5013273;28;20064;-77
2023/01/05 11:35:16;;;;;;;3.13;1.40;;;;;;;;;;5027590;28;20053;-76
2023/01/05 11:37:44;;;;;;;4.18;1.42;;;;;;;;;;5029213;28;20057;-76
2023/01/05 11:40:14;;;;;;;2.55;1.20;;;;;;;;;;5023213;28;20054;-79
2023/01/05 11:42:43;;;;;;;3.63;1.42;;;;;;;;;;5026760;28;20394;-76
2023/01/05 11:45:20;;;;;;;2.55;1.40;;;15.00;74.40;;;;;;5018737;28;20061;-76
2023/01/05 11:47:48;;;;;;;5.55;1.30;;;;;;;;;;5021412;28;20057;-77
2023/01/05 11:50:17;;;;;;;4.00;1.40;;;15.00;73.90;;;;;;5018923;28;20076;-79
2023/01/05 11:52:44;;;;;;;2.88;1.30;;;;;;;;;;5019432;28;20060;-76
2023/01/05 11:55:32;;;;;;;2.95;1.27;;;14.90;75.20;;;;;;5022146;28;20060;-77
2023/01/05 11:58:16;;;;;;;2.45;1.30;;;;;;;;;;5023684;28;20195;-76
2023/01/05 12:00:49;;;;;;;2.92;1.17;;;;;;;;;;5041421;28;20105;-77
2023/01/05 12:03:22;;;;;;;3.22;1.40;;;;;;;;;;5021742;28;20514;-76
2023/01/05 12:05:50;;;;;;;2.35;1.15;;;;;;;;;;5016484;28;20133;-77
2023/01/05 12:08:19;;;;;;;3.17;1.20;;;14.80;74.20;;;;;;5021880;28;20054;-76
2023/01/05 12:10:48;;;;;;;3.30;1.50;;;;;;;;;;5018201;28;20426;-77
2023/01/05 12:13:22;;;;;;;6.07;1.73;;;;;;;;;;5022762;28;20053;-77
2023/01/05 12:15:53;;;;;;;3.08;1.40;;;;;;;;;;5026374;28;20049;-76
2023/01/05 12:18:24;;;;;;;1.90;1.20;;;;;;;;;;5024357;28;20053;-77
2023/01/05 12:20:55;;;;;;;2.33;1.30;;;;;;;;;;5025067;28;20142;-76
2023/01/05 12:23:28;;;;;;;2.00;1.08;;;;;;;;;;5026391;28;20048;-76
2023/01/05 12:25:57;;;;;;;4.22;1.35;;;;;;;;;;5025959;28;20123;-76
2023/01/05 12:28:40;;;;;;;2.30;1.17;;;14.70;75.40;;;;;;5033266;28;20048;-76
2023/01/05 12:31:16;;;;;;;3.92;1.42;;;14.70;75.40;;;;;;5031242;28;20054;-78
2023/01/05 12:33:50;;;;;;;3.20;1.27;;;;;;;;;;5014696;28;20054;-77
2023/01/05 12:36:20;;;;;;;4.28;1.50;;;;;;;;;;5017822;28;20140;-76
2023/01/05 12:38:48;;;;;;;2.40;1.10;;;;;;;;;;5033590;28;20057;-76
2023/01/05 12:41:30;;;;;;;3.33;1.30;;;;;;;;;;5032959;28;20184;-76
2023/01/05 12:44:04;;;;;;;2.25;1.35;;;14.70;75.50;;;;;;5033463;28;20054;-76
2023/01/05 12:46:39;;;;;;;3.03;1.10;;;;;;;;;;5033667;28;20411;-76
2023/01/05 12:49:06;;;;;;;1.73;1.10;;;;;;;;;;5033477;28;20053;-76
2023/01/05 12:51:34;;;;;;;2.20;1.10;;;;;;;;;;5025229;28;20132;-76
2023/01/05 12:54:02;;;;;;;2.35;1.27;;;;;;;;;;5029765;28;20060;-76
2023/01/05 12:56:30;;;;;;;1.42;1.00;;;14.60;75.50;;;;;;5024544;28;20395;-77
2023/01/05 12:59:06;;;;;;;3.65;1.17;;;14.70;75.70;;;;;;5014311;28;20104;-77
2023/01/05 13:01:35;;;;;;;4.88;1.20;;;14.60;75.50;;;;;;5024141;28;20562;-76
2023/01/05 13:04:05;;;;;;;3.20;1.20;;;14.50;73.50;;;;;;5033127;28;20049;-76
2023/01/05 13:06:33;;;;;;;3.95;1.10;;;;;;;;;;5015871;28;20077;-77
2023/01/05 13:09:00;;;;;;;3.17;1.30;;;;;;;;;;5013430;28;20054;-76
2023/01/05 13:11:28;;;;;;;2.17;1.17;;;;;;;;;;5026539;28;20057;-77
2023/01/05 13:13:55;;;;;;;3.15;1.38;;;;;;;;;;5033810;28;20470;-76
2023/01/05 13:16:23;;;;;;;2.38;1.20;;;;;;;;;;5032823;28;20058;-76
2023/01/05 13:18:51;;;;;;;3.05;1.23;;;;;;;;;;5032538;28;20053;-77
2023/01/05 13:21:20;;;;;;;2.35;1.20;;;;;;;;;;5021610;28;20129;-76
2023/01/05 13:23:48;;;;;;;3.40;1.30;;;;;;;;;;5012548;28;20133;-76
2023/01/05 13:26:15;;;;;;;3.58;1.10;;;;;;;;;;5013150;28;20054;-76
2023/01/05 13:28:42;;;;;;;2.70;1.33;;;;;;;;;;5011013;28;20061;-77
2023/01/05 13:31:15;;;;;;;1.67;1.13;;;;;;;;;;5016965;28;20141;-76
2023/01/05 13:33:48;;;;;;;2.50;1.20;;;14.70;75.60;;;;;;5029962;28;20051;-76
2023/01/05 13:36:24;;;;;;;2.90;1.23;;;14.70;75.50;;;;;;5030722;28;20057;-76
2023/01/05 13:39:06;;;;;;;3.08;1.20;;;14.70;75.60;;;;;;5032581;28;20053;-75
2023/01/05 13:41:37;;;;;;;3.72;1.27;;;;;;;;;;5012783;28;20141;-75
2023/01/05 13:44:30;;;;;;;4.07;1.73;;;14.70;75.80;;;;;;5012608;28;20483;-76
2023/01/05 13:47:01;;;;;;;3.40;1.40;;;;;;;;;;5006011;28;20062;-75
2023/01/05 13:49:33;;;;;;;4.88;1.58;;;;;;;;;;5016276;28;20045;-76
2023/01/05 13:52:02;;;;;;;3.50;1.20;;;;;;;;;;5023309;28;20088;-75
2023/01/05 13:54:34;;;;;;;5.50;1.35;;;14.70;75.80;;;;;;5012175;28;20141;-75
2023/01/05 13:57:01;;;;;;;3.38;1.23;;;;;;;;;;5012477;28;20137;-76
2023/01/05 13:59:29;;;;;;;2.40;1.20;;;14.70;74.70;;;;;;5032039;28;20148;-77
2023/01/05 14:01:57;;;;;;;2.22;1.08;;;;;;;;;;5023979;28;20154;-75
2023/01/05 14:04:25;;;;;;;3.13;1.55;;;14.70;74.50;;;;;;5011885;28;20050;-75
2023/01/05 14:06:53;;;;;;;2.63;1.10;;;;;;;;;;5011940;28;20144;-76
2023/01/05 14:09:23;;;;;;;3.47;1.35;;;;;;;;;;5017901;28;20053;-76
2023/01/05 14:12:04;;;;;;;2.55;1.65;;;;;;;;;;5024656;28;20136;-76
2023/01/05 14:14:32;;;;;;;2.67;1.33;;;;;;;;;;5011070;28;20060;-76
2023/01/05 14:16:59;;;;;;;2.78;1.20;;;;;;;;;;5012144;28;20053;-75
2023/01/05 14:19:27;;;;;;;3.90;1.50;;;;;;;;;;5011840;28;20132;-75
2023/01/05 14:22:22;;;;;;;2.70;1.10;;;14.80;75.70;;;;;;5016203;28;20152;-76
2023/01/05 14:24:51;;;;;;;4.03;1.20;;;;;;;;;;4994689;28;20050;-75
2023/01/05 14:27:18;;;;;;;2.30;1.38;;;;;;;;;;5011604;28;20065;-76
2023/01/05 14:30:09;;;;;;;2.95;1.30;;;;;;;;;;5012114;28;20137;-75
2023/01/05 14:32:37;;;;;;;2.40;1.08;;;;;;;;;;5023124;28;20108;-75
2023/01/05 14:35:07;;;;;;;2.30;1.20;;;;;;;;;;5031235;28;20132;-77
2023/01/05 14:37:35;;;;;;;2.25;1.08;;;;;;;;;;5030901;28;20059;-76
2023/01/05 14:40:03;;;;;;;2.70;1.10;;;;;;;;;;5024278;28;20067;-76
2023/01/05 14:42:31;;;;;;;2.17;1.02;;;;;;;;;;5021387;28;20103;-76
2023/01/05 14:44:59;;;;;;;2.88;1.17;;;14.80;73.50;;;;;;5016294;28;20088;-75
2023/01/05 14:47:33;;;;;;;2.15;1.40;;;;;;;;;;5019582;28;20056;-77
2023/01/05 14:50:02;;;;;;;1.95;1.20;;;;;;;;;;5011406;28;20518;-77
2023/01/05 14:52:48;;;;;;;3.30;1.20;;;;;;;;;;5017000;28;20053;-75
2023/01/05 14:55:21;;;;;;;3.03;1.45;;;14.80;73.30;;;;;;5011160;28;20068;-75
2023/01/05 14:57:48;;;;;;;2.92;1.35;;;;;;;;;;5014761;28;20065;-75
2023/01/05 15:00:16;;;;;;;2.58;1.25;;;;;;;;;;5025824;28;20045;-76
2023/01/05 15:02:45;;;;;;;2.17;1.00;;;;;;;;;;5030278;28;20144;-76
2023/01/05 15:05:14;;;;;;;1.42;1.00;;;14.90;75.30;;;;;;5027594;28;20499;-77
2023/01/05 15:07:43;;;;;;;1.65;1.05;;;;;;;;;;5010940;28;20062;-75
2023/01/05 15:10:13;;;;;;;2.53;1.10;;;;;;;;;;5012309;28;20064;-75
2023/01/05 15:13:03;;;;;;;2.70;1.20;;;14.90;75.30;;;;;;5011051;28;20060;-75